sensor_id;sensor_type;location;lat;lon;timestamp;pressure;altitude;pressure_sealevel;temperature;humidity
55540;BME280;41384;51.418;7.286;2023-06-14T00:01:09;99697.66;;;20.16;44.69
55540;BME280;41384;51.418;7.286;2023-06-14T00:03:34;99695.28;;;20.09;45.30
55540;BME280;41384;51.418;7.286;2023-06-14T00:06:00;99696.06;;;20.20;44.70
55540;BME280;41384;51.418;7.286;2023-06-14T00:08:25;99704.94;;;20.05;44.69
55540;BME280;41384;51.418;7.286;2023-06-14T00:10:50;99702.00;;;19.86;45.62
55540;BME280;41384;51.418;7.286;2023-06-14T00:13:16;99699.84;;;19.88;45.87
55540;BME280;41384;51.418;7.286;2023-06-14T00:15:41;99699.84;;;20.08;45.37
55540;BME280;41384;51.418;7.286;2023-06-14T00:18:08;99709.19;;;20.16;45.19
55540;BME280;41384;51.418;7.286;2023-06-14T00:20:35;99713.19;;;20.24;45.10
55540;BME280;41384;51.418;7.286;2023-06-14T00:23:00;99707.31;;;20.17;44.71
55540;BME280;41384;51.418;7.286;2023-06-14T00:25:26;99707.31;;;20.17;44.74
55540;BME280;41384;51.418;7.286;2023-06-14T00:27:52;99714.84;;;20.09;45.05
55540;BME280;41384;51.418;7.286;2023-06-14T00:30:18;99714.81;;;20.15;45.25
55540;BME280;41384;51.418;7.286;2023-06-14T00:32:44;99716.19;;;20.02;45.57
55540;BME280;41384;51.418;7.286;2023-06-14T00:35:10;99718.63;;;19.98;45.67
55540;BME280;41384;51.418;7.286;2023-06-14T00:37:36;99714.03;;;20.04;45.62
55540;BME280;41384;51.418;7.286;2023-06-14T00:40:02;99722.88;;;20.09;45.70
55540;BME280;41384;51.418;7.286;2023-06-14T00:42:28;99726.13;;;20.01;45.44
55540;BME280;41384;51.418;7.286;2023-06-14T00:44:54;99717.78;;;20.08;45.57
55540;BME280;41384;51.418;7.286;2023-06-14T00:47:20;99720.75;;;20.06;45.63
55540;BME280;41384;51.418;7.286;2023-06-14T00:49:46;99721.50;;;20.12;45.47
55540;BME280;41384;51.418;7.286;2023-06-14T00:52:12;99723.94;;;20.14;45.64
55540;BME280;41384;51.418;7.286;2023-06-14T00:54:40;99725.06;;;19.97;45.96
55540;BME280;41384;51.418;7.286;2023-06-14T00:57:05;99726.38;;;19.94;46.08
55540;BME280;41384;51.418;7.286;2023-06-14T00:59:32;99722.66;;;19.90;45.79
55540;BME280;41384;51.418;7.286;2023-06-14T01:01:57;99728.25;;;19.89;45.86
55540;BME280;41384;51.418;7.286;2023-06-14T01:04:23;99728.78;;;19.86;46.16
55540;BME280;41384;51.418;7.286;2023-06-14T01:07:02;99726.63;;;19.82;46.34
55540;BME280;41384;51.418;7.286;2023-06-14T01:09:46;99732.28;;;19.71;46.59
55540;BME280;41384;51.418;7.286;2023-06-14T01:12:26;99735.22;;;19.74;46.97
55540;BME280;41384;51.418;7.286;2023-06-14T01:14:55;99729.31;;;19.67;46.95
55540;BME280;41384;51.418;7.286;2023-06-14T01:17:22;99736.84;;;19.60;46.99
55540;BME280;41384;51.418;7.286;2023-06-14T01:19:48;99734.69;;;19.62;47.03
55540;BME280;41384;51.418;7.286;2023-06-14T01:22:14;99730.94;;;19.47;47.45
55540;BME280;41384;51.418;7.286;2023-06-14T01:24:39;99730.41;;;19.19;47.54
55540;BME280;41384;51.418;7.286;2023-06-14T01:27:10;99732.78;;;19.10;48.49
55540;BME280;41384;51.418;7.286;2023-06-14T01:29:37;99735.47;;;19.10;48.26
55540;BME280;41384;51.418;7.286;2023-06-14T01:32:04;99738.06;;;18.95;48.44
55540;BME280;41384;51.418;7.286;2023-06-14T01:34:30;99734.84;;;18.83;49.23
55540;BME280;41384;51.418;7.286;2023-06-14T01:36:55;99735.69;;;18.99;48.99
55540;BME280;41384;51.418;7.286;2023-06-14T01:39:22;99740.53;;;19.07;48.75
55540;BME280;41384;51.418;7.286;2023-06-14T01:41:49;99735.75;;;19.09;48.21
55540;BME280;41384;51.418;7.286;2023-06-14T01:44:16;99740.81;;;19.16;47.89
55540;BME280;41384;51.418;7.286;2023-06-14T01:46:43;99732.44;;;18.96;48.65
55540;BME280;41384;51.418;7.286;2023-06-14T01:49:10;99734.13;;;19.13;48.23
55540;BME280;41384;51.418;7.286;2023-06-14T01:51:36;99733.06;;;19.24;48.10
55540;BME280;41384;51.418;7.286;2023-06-14T01:54:01;99728.25;;;19.21;47.59
55540;BME280;41384;51.418;7.286;2023-06-14T01:56:26;99737.59;;;19.19;48.06
55540;BME280;41384;51.418;7.286;2023-06-14T01:58:52;99729.50;;;18.83;47.84
55540;BME280;41384;51.418;7.286;2023-06-14T02:01:19;99732.53;;;19.17;47.86
55540;BME280;41384;51.418;7.286;2023-06-14T02:03:46;99725.03;;;19.19;47.96
55540;BME280;41384;51.418;7.286;2023-06-14T02:06:11;99734.94;;;19.14;48.14
55540;BME280;41384;51.418;7.286;2023-06-14T02:08:37;99726.53;;;18.84;47.94
55540;BME280;41384;51.418;7.286;2023-06-14T02:11:02;99728.13;;;18.75;48.58
55540;BME280;41384;51.418;7.286;2023-06-14T02:13:28;99734.03;;;18.92;48.40
55540;BME280;41384;51.418;7.286;2023-06-14T02:15:53;99735.06;;;18.76;48.98
55540;BME280;41384;51.418;7.286;2023-06-14T02:18:20;99735.34;;;18.74;49.03
55540;BME280;41384;51.418;7.286;2023-06-14T02:20:46;99732.66;;;18.64;49.32
55540;BME280;41384;51.418;7.286;2023-06-14T02:23:11;99742.25;;;18.60;49.13
55540;BME280;41384;51.418;7.286;2023-06-14T02:25:37;99737.72;;;18.65;48.93
55540;BME280;41384;51.418;7.286;2023-06-14T02:28:02;99742.72;;;18.51;49.33
55540;BME280;41384;51.418;7.286;2023-06-14T02:30:28;99739.53;;;18.55;49.43
55540;BME280;41384;51.418;7.286;2023-06-14T02:32:53;99735.31;;;18.59;49.17
55540;BME280;41384;51.418;7.286;2023-06-14T02:35:19;99744.09;;;18.54;49.18
55540;BME280;41384;51.418;7.286;2023-06-14T02:37:45;99738.75;;;18.54;49.22
55540;BME280;41384;51.418;7.286;2023-06-14T02:40:11;99742.34;;;18.22;50.11
55540;BME280;41384;51.418;7.286;2023-06-14T02:42:36;99740.84;;;18.42;49.97
55540;BME280;41384;51.418;7.286;2023-06-14T02:45:02;99738.66;;;18.33;49.91
55540;BME280;41384;51.418;7.286;2023-06-14T02:47:29;99741.97;;;18.56;49.16
55540;BME280;41384;51.418;7.286;2023-06-14T02:49:55;99743.25;;;18.53;49.61
55540;BME280;41384;51.418;7.286;2023-06-14T02:52:20;99744.81;;;18.39;49.24
55540;BME280;41384;51.418;7.286;2023-06-14T02:54:45;99739.75;;;18.43;49.55
55540;BME280;41384;51.418;7.286;2023-06-14T02:57:12;99756.34;;;18.45;49.47
55540;BME280;41384;51.418;7.286;2023-06-14T02:59:37;99743.72;;;18.35;49.79
55540;BME280;41384;51.418;7.286;2023-06-14T03:02:03;99750.47;;;18.48;49.19
55540;BME280;41384;51.418;7.286;2023-06-14T03:04:28;99752.88;;;18.49;49.23
55540;BME280;41384;51.418;7.286;2023-06-14T03:06:54;99757.28;;;18.18;49.87
55540;BME280;41384;51.418;7.286;2023-06-14T03:09:19;99759.00;;;18.45;48.92
55540;BME280;41384;51.418;7.286;2023-06-14T03:11:45;99763.84;;;18.48;48.91
55540;BME280;41384;51.418;7.286;2023-06-14T03:14:10;99773.97;;;18.41;49.05
55540;BME280;41384;51.418;7.286;2023-06-14T03:16:36;99760.81;;;18.34;49.06
55540;BME280;41384;51.418;7.286;2023-06-14T03:19:02;99765.63;;;18.37;48.89
55540;BME280;41384;51.418;7.286;2023-06-14T03:21:27;99769.41;;;18.41;48.91
55540;BME280;41384;51.418;7.286;2023-06-14T03:23:53;99770.13;;;18.21;49.48
55540;BME280;41384;51.418;7.286;2023-06-14T03:26:19;99775.69;;;18.19;49.63
55540;BME280;41384;51.418;7.286;2023-06-14T03:28:45;99767.34;;;18.11;49.55
55540;BME280;41384;51.418;7.286;2023-06-14T03:31:11;99772.81;;;18.26;49.35
55540;BME280;41384;51.418;7.286;2023-06-14T03:33:37;99783.38;;;18.11;49.84
55540;BME280;41384;51.418;7.286;2023-06-14T03:36:02;99781.28;;;18.13;50.05
55540;BME280;41384;51.418;7.286;2023-06-14T03:38:28;99779.91;;;18.10;49.74
55540;BME280;41384;51.418;7.286;2023-06-14T03:40:53;99786.38;;;18.19;50.02
55540;BME280;41384;51.418;7.286;2023-06-14T03:43:18;99791.22;;;18.22;49.70
55540;BME280;41384;51.418;7.286;2023-06-14T03:45:44;99798.72;;;18.26;49.96
55540;BME280;41384;51.418;7.286;2023-06-14T03:48:09;99798.69;;;18.20;50.10
55540;BME280;41384;51.418;7.286;2023-06-14T03:50:35;99798.13;;;18.18;49.83
55540;BME280;41384;51.418;7.286;2023-06-14T03:53:03;99799.78;;;18.25;49.52
55540;BME280;41384;51.418;7.286;2023-06-14T03:55:28;99801.88;;;18.17;49.41
55540;BME280;41384;51.418;7.286;2023-06-14T03:57:56;99800.28;;;18.21;49.31
55540;BME280;41384;51.418;7.286;2023-06-14T04:00:21;99804.09;;;18.31;49.12
55540;BME280;41384;51.418;7.286;2023-06-14T04:02:47;99809.41;;;18.26;49.04
55540;BME280;41384;51.418;7.286;2023-06-14T04:05:12;99810.56;;;18.02;49.82
55540;BME280;41384;51.418;7.286;2023-06-14T04:07:38;99816.03;;;18.18;49.59
55540;BME280;41384;51.418;7.286;2023-06-14T04:10:06;99815.59;;;18.31;48.54
55540;BME280;41384;51.418;7.286;2023-06-14T04:12:32;99820.41;;;18.34;48.41
55540;BME280;41384;51.418;7.286;2023-06-14T04:14:57;99828.22;;;18.08;49.25
55540;BME280;41384;51.418;7.286;2023-06-14T04:17:22;99830.81;;;18.31;49.03
55540;BME280;41384;51.418;7.286;2023-06-14T04:19:47;99833.38;;;18.15;49.34
55540;BME280;41384;51.418;7.286;2023-06-14T04:22:13;99837.53;;;18.01;49.45
55540;BME280;41384;51.418;7.286;2023-06-14T04:24:38;99840.50;;;18.04;49.26
55540;BME280;41384;51.418;7.286;2023-06-14T04:27:03;99846.72;;;18.15;49.53
55540;BME280;41384;51.418;7.286;2023-06-14T04:29:29;99844.16;;;17.98;49.23
55540;BME280;41384;51.418;7.286;2023-06-14T04:31:56;99844.69;;;18.28;49.70
55540;BME280;41384;51.418;7.286;2023-06-14T04:34:26;99840.41;;;18.27;49.70
55540;BME280;41384;51.418;7.286;2023-06-14T04:36:55;99838.56;;;18.32;49.38
55540;BME280;41384;51.418;7.286;2023-06-14T04:39:22;99844.44;;;18.29;49.55
55540;BME280;41384;51.418;7.286;2023-06-14T04:41:47;99853.47;;;18.23;49.80
55540;BME280;41384;51.418;7.286;2023-06-14T04:44:16;99853.13;;;18.14;49.22
55540;BME280;41384;51.418;7.286;2023-06-14T04:46:42;99850.88;;;18.01;49.41
55540;BME280;41384;51.418;7.286;2023-06-14T04:49:14;99853.78;;;18.32;49.38
55540;BME280;41384;51.418;7.286;2023-06-14T04:51:43;99857.56;;;18.36;49.74
55540;BME280;41384;51.418;7.286;2023-06-14T04:54:09;99857.34;;;18.43;49.40
55540;BME280;41384;51.418;7.286;2023-06-14T04:56:38;99867.25;;;18.47;49.67
55540;BME280;41384;51.418;7.286;2023-06-14T04:59:03;99869.50;;;18.23;50.12
55540;BME280;41384;51.418;7.286;2023-06-14T05:01:32;99863.47;;;18.43;50.00
55540;BME280;41384;51.418;7.286;2023-06-14T05:03:58;99871.66;;;18.26;49.95
55540;BME280;41384;51.418;7.286;2023-06-14T05:06:23;99865.81;;;18.29;49.49
55540;BME280;41384;51.418;7.286;2023-06-14T05:08:49;99862.09;;;18.35;50.15
55540;BME280;41384;51.418;7.286;2023-06-14T05:11:15;99868.06;;;18.48;49.88
55540;BME280;41384;51.418;7.286;2023-06-14T05:13:43;99866.47;;;18.52;50.56
55540;BME280;41384;51.418;7.286;2023-06-14T05:16:10;99863.84;;;18.57;50.15
55540;BME280;41384;51.418;7.286;2023-06-14T05:18:36;99862.22;;;18.56;50.47
55540;BME280;41384;51.418;7.286;2023-06-14T05:21:02;99869.94;;;18.52;50.49
55540;BME280;41384;51.418;7.286;2023-06-14T05:23:28;99880.69;;;18.58;49.84
55540;BME280;41384;51.418;7.286;2023-06-14T05:25:54;99875.63;;;18.61;49.71
55540;BME280;41384;51.418;7.286;2023-06-14T05:28:19;99874.59;;;18.67;49.45
55540;BME280;41384;51.418;7.286;2023-06-14T05:30:45;99868.72;;;18.71;49.43
55540;BME280;41384;51.418;7.286;2023-06-14T05:33:11;99870.88;;;18.74;49.22
55540;BME280;41384;51.418;7.286;2023-06-14T05:35:36;99880.97;;;19.04;48.76
55540;BME280;41384;51.418;7.286;2023-06-14T05:38:03;99876.94;;;19.02;48.22
55540;BME280;41384;51.418;7.286;2023-06-14T05:40:28;99876.00;;;18.80;48.64
55540;BME280;41384;51.418;7.286;2023-06-14T05:42:53;99878.19;;;18.89;48.58
55540;BME280;41384;51.418;7.286;2023-06-14T05:45:18;99890.06;;;18.60;48.37
55540;BME280;41384;51.418;7.286;2023-06-14T05:47:44;99875.59;;;18.56;49.15
55540;BME280;41384;51.418;7.286;2023-06-14T05:50:09;99883.25;;;18.90;49.00
55540;BME280;41384;51.418;7.286;2023-06-14T05:52:35;99893.13;;;18.79;48.78
55540;BME280;41384;51.418;7.286;2023-06-14T05:55:02;99892.47;;;19.05;48.31
55540;BME280;41384;51.418;7.286;2023-06-14T05:57:27;99889.84;;;19.20;48.18
55540;BME280;41384;51.418;7.286;2023-06-14T05:59:52;99900.00;;;19.13;48.12
55540;BME280;41384;51.418;7.286;2023-06-14T06:02:18;99899.22;;;19.23;48.75
55540;BME280;41384;51.418;7.286;2023-06-14T06:04:43;99897.56;;;19.06;48.21
55540;BME280;41384;51.418;7.286;2023-06-14T06:07:08;99896.28;;;19.24;48.75
55540;BME280;41384;51.418;7.286;2023-06-14T06:09:33;99895.66;;;19.02;48.20
55540;BME280;41384;51.418;7.286;2023-06-14T06:11:59;99897.09;;;19.25;48.94
55540;BME280;41384;51.418;7.286;2023-06-14T06:14:24;99899.50;;;19.27;48.58
55540;BME280;41384;51.418;7.286;2023-06-14T06:16:50;99897.72;;;19.48;47.96
55540;BME280;41384;51.418;7.286;2023-06-14T06:19:17;99907.25;;;19.23;47.62
55540;BME280;41384;51.418;7.286;2023-06-14T06:21:43;99895.28;;;19.41;47.78
55540;BME280;41384;51.418;7.286;2023-06-14T06:24:08;99904.63;;;19.44;47.02
55540;BME280;41384;51.418;7.286;2023-06-14T06:26:33;99902.03;;;19.59;47.79
55540;BME280;41384;51.418;7.286;2023-06-14T06:28:58;99900.13;;;19.60;47.64
55540;BME280;41384;51.418;7.286;2023-06-14T06:31:24;99899.59;;;19.58;47.91
55540;BME280;41384;51.418;7.286;2023-06-14T06:33:50;99904.44;;;19.66;47.77
55540;BME280;41384;51.418;7.286;2023-06-14T06:36:16;99902.84;;;19.70;47.42
55540;BME280;41384;51.418;7.286;2023-06-14T06:38:41;99905.81;;;19.89;46.31
55540;BME280;41384;51.418;7.286;2023-06-14T06:41:07;99915.69;;;19.78;46.49
55540;BME280;41384;51.418;7.286;2023-06-14T06:43:32;99915.41;;;19.59;46.17
55540;BME280;41384;51.418;7.286;2023-06-14T06:45:57;99909.00;;;19.71;46.02
55540;BME280;41384;51.418;7.286;2023-06-14T06:48:23;99911.50;;;19.93;46.00
55540;BME280;41384;51.418;7.286;2023-06-14T06:50:48;99921.66;;;19.91;45.94
55540;BME280;41384;51.418;7.286;2023-06-14T06:53:13;99924.56;;;19.84;44.78
55540;BME280;41384;51.418;7.286;2023-06-14T06:55:38;99924.81;;;19.77;44.56
55540;BME280;41384;51.418;7.286;2023-06-14T06:58:04;99928.34;;;19.93;45.30
55540;BME280;41384;51.418;7.286;2023-06-14T07:00:30;99931.03;;;20.04;45.45
55540;BME280;41384;51.418;7.286;2023-06-14T07:02:56;99936.13;;;20.00;45.43
55540;BME280;41384;51.418;7.286;2023-06-14T07:05:22;99934.78;;;19.97;45.61
55540;BME280;41384;51.418;7.286;2023-06-14T07:07:47;99933.19;;;20.07;46.29
55540;BME280;41384;51.418;7.286;2023-06-14T07:10:12;99930.25;;;20.14;45.93
55540;BME280;41384;51.418;7.286;2023-06-14T07:12:37;99931.56;;;20.21;45.69
55540;BME280;41384;51.418;7.286;2023-06-14T07:15:07;99936.94;;;20.16;46.02
55540;BME280;41384;51.418;7.286;2023-06-14T07:17:33;99937.75;;;20.17;45.71
55540;BME280;41384;51.418;7.286;2023-06-14T07:19:59;99935.59;;;19.98;45.18
55540;BME280;41384;51.418;7.286;2023-06-14T07:22:26;99932.41;;;20.06;45.47
55540;BME280;41384;51.418;7.286;2023-06-14T07:24:51;99936.41;;;20.09;45.55
55540;BME280;41384;51.418;7.286;2023-06-14T07:27:16;99936.41;;;20.14;45.51
55540;BME280;41384;51.418;7.286;2023-06-14T07:29:42;99929.97;;;20.05;45.09
55540;BME280;41384;51.418;7.286;2023-06-14T07:32:07;99940.09;;;19.87;44.85
55540;BME280;41384;51.418;7.286;2023-06-14T07:34:33;99951.34;;;19.89;45.11
55540;BME280;41384;51.418;7.286;2023-06-14T07:36:58;99938.00;;;20.00;45.46
55540;BME280;41384;51.418;7.286;2023-06-14T07:39:23;99945.44;;;19.82;45.01
55540;BME280;41384;51.418;7.286;2023-06-14T07:41:48;99941.19;;;19.91;44.83
55540;BME280;41384;51.418;7.286;2023-06-14T07:44:14;99943.88;;;19.96;44.85
55540;BME280;41384;51.418;7.286;2023-06-14T07:46:40;99937.75;;;19.96;45.01
55540;BME280;41384;51.418;7.286;2023-06-14T07:49:06;99933.72;;;20.04;44.82
55540;BME280;41384;51.418;7.286;2023-06-14T07:51:31;99952.47;;;20.09;45.05
55540;BME280;41384;51.418;7.286;2023-06-14T07:53:59;99949.41;;;19.69;45.24
55540;BME280;41384;51.418;7.286;2023-06-14T07:56:26;99943.91;;;20.12;45.68
55540;BME280;41384;51.418;7.286;2023-06-14T07:58:51;99956.22;;;20.03;45.28
55540;BME280;41384;51.418;7.286;2023-06-14T08:01:16;99950.34;;;20.11;46.43
55540;BME280;41384;51.418;7.286;2023-06-14T08:03:42;99958.13;;;20.18;45.78
55540;BME280;41384;51.418;7.286;2023-06-14T08:06:07;99959.44;;;20.20;44.99
55540;BME280;41384;51.418;7.286;2023-06-14T08:08:33;99955.44;;;20.33;45.06
55540;BME280;41384;51.418;7.286;2023-06-14T08:10:58;99959.72;;;20.34;46.08
55540;BME280;41384;51.418;7.286;2023-06-14T08:13:23;99954.91;;;20.36;46.27
55540;BME280;41384;51.418;7.286;2023-06-14T08:15:49;99957.31;;;20.27;46.01
55540;BME280;41384;51.418;7.286;2023-06-14T08:18:14;99958.13;;;20.33;44.32
55540;BME280;41384;51.418;7.286;2023-06-14T08:20:39;99955.44;;;20.44;43.99
55540;BME280;41384;51.418;7.286;2023-06-14T08:23:05;99961.88;;;20.42;42.16
55540;BME280;41384;51.418;7.286;2023-06-14T08:25:30;99951.41;;;20.10;41.71
55540;BME280;41384;51.418;7.286;2023-06-14T08:27:56;99952.50;;;20.40;43.00
55540;BME280;41384;51.418;7.286;2023-06-14T08:30:22;99964.28;;;20.65;42.38
55540;BME280;41384;51.418;7.286;2023-06-14T08:32:47;99954.34;;;20.60;41.15
55540;BME280;41384;51.418;7.286;2023-06-14T08:35:12;99957.84;;;20.61;41.37
55540;BME280;41384;51.418;7.286;2023-06-14T08:37:39;99962.69;;;20.64;41.39
55540;BME280;41384;51.418;7.286;2023-06-14T08:40:17;99960.50;;;20.76;42.48
55540;BME280;41384;51.418;7.286;2023-06-14T08:42:43;99956.53;;;20.79;40.69
55540;BME280;41384;51.418;7.286;2023-06-14T08:45:08;99960.78;;;20.64;40.10
55540;BME280;41384;51.418;7.286;2023-06-14T08:47:33;99969.09;;;20.68;39.97
55540;BME280;41384;51.418;7.286;2023-06-14T08:50:02;99969.38;;;20.61;40.04
55540;BME280;41384;51.418;7.286;2023-06-14T08:52:32;99969.66;;;20.80;40.56
55540;BME280;41384;51.418;7.286;2023-06-14T08:54:59;99958.88;;;21.01;41.14
55540;BME280;41384;51.418;7.286;2023-06-14T08:57:26;99957.53;;;21.09;41.48
55540;BME280;41384;51.418;7.286;2023-06-14T08:59:56;99957.84;;;20.71;40.24
55540;BME280;41384;51.418;7.286;2023-06-14T09:02:22;99959.44;;;20.88;41.32
55540;BME280;41384;51.418;7.286;2023-06-14T09:04:47;99958.59;;;21.13;40.75
55540;BME280;41384;51.418;7.286;2023-06-14T09:07:14;99959.88;;;21.31;40.71
55540;BME280;41384;51.418;7.286;2023-06-14T09:09:40;99956.28;;;21.46;40.18
55540;BME280;41384;51.418;7.286;2023-06-14T09:12:08;99963.00;;;21.49;40.60
55540;BME280;41384;51.418;7.286;2023-06-14T09:14:35;99961.66;;;21.46;39.85
55540;BME280;41384;51.418;7.286;2023-06-14T09:17:03;99955.19;;;21.52;40.66
55540;BME280;41384;51.418;7.286;2023-06-14T09:19:29;99958.66;;;21.58;40.02
55540;BME280;41384;51.418;7.286;2023-06-14T09:21:54;99959.41;;;21.79;40.22
55540;BME280;41384;51.418;7.286;2023-06-14T09:24:20;99963.66;;;21.85;40.65
55540;BME280;41384;51.418;7.286;2023-06-14T09:26:51;99968.38;;;22.04;39.53
55540;BME280;41384;51.418;7.286;2023-06-14T09:29:17;99964.56;;;22.10;39.37
55540;BME280;41384;51.418;7.286;2023-06-14T09:31:43;99961.81;;;22.21;38.85
55540;BME280;41384;51.418;7.286;2023-06-14T09:34:09;99969.31;;;22.24;38.96
55540;BME280;41384;51.418;7.286;2023-06-14T09:36:34;99969.00;;;22.30;38.93
55540;BME280;41384;51.418;7.286;2023-06-14T09:39:01;99969.78;;;22.31;37.46
55540;BME280;41384;51.418;7.286;2023-06-14T09:41:34;99972.16;;;22.38;37.69
55540;BME280;41384;51.418;7.286;2023-06-14T09:44:00;99973.47;;;22.45;37.75
55540;BME280;41384;51.418;7.286;2023-06-14T09:46:28;99967.53;;;22.43;37.76
55540;BME280;41384;51.418;7.286;2023-06-14T09:48:54;99973.72;;;22.49;38.08
55540;BME280;41384;51.418;7.286;2023-06-14T09:51:22;99967.25;;;22.50;38.03
55540;BME280;41384;51.418;7.286;2023-06-14T09:53:48;99969.38;;;22.53;38.95
55540;BME280;41384;51.418;7.286;2023-06-14T09:56:22;99964.72;;;22.64;38.69
55540;BME280;41384;51.418;7.286;2023-06-14T09:58:50;99972.94;;;22.73;39.22
55540;BME280;41384;51.418;7.286;2023-06-14T10:01:20;99971.06;;;22.73;39.83
55540;BME280;41384;51.418;7.286;2023-06-14T10:03:45;99971.59;;;22.76;38.66
55540;BME280;41384;51.418;7.286;2023-06-14T10:06:11;99976.97;;;22.76;39.26
55540;BME280;41384;51.418;7.286;2023-06-14T10:08:37;99975.84;;;22.82;39.20
55540;BME280;41384;51.418;7.286;2023-06-14T10:11:03;99969.06;;;22.84;38.78
55540;BME280;41384;51.418;7.286;2023-06-14T10:13:31;99972.75;;;22.94;39.48
55540;BME280;41384;51.418;7.286;2023-06-14T10:21:16;99967.94;;;23.15;39.88
55540;BME280;41384;51.418;7.286;2023-06-14T10:23:45;99973.63;;;23.13;38.16
55540;BME280;41384;51.418;7.286;2023-06-14T10:26:18;99971.66;;;23.19;38.40
55540;BME280;41384;51.418;7.286;2023-06-14T10:29:01;99957.06;;;23.25;37.80
55540;BME280;41384;51.418;7.286;2023-06-14T10:31:53;99959.72;;;23.30;38.17
55540;BME280;41384;51.418;7.286;2023-06-14T10:34:30;99955.88;;;23.37;38.73
55540;BME280;41384;51.418;7.286;2023-06-14T10:37:07;99946.13;;;23.41;38.51
55540;BME280;41384;51.418;7.286;2023-06-14T10:39:43;99961.75;;;23.39;37.32
55540;BME280;41384;51.418;7.286;2023-06-14T10:42:11;99962.84;;;23.38;37.22
55540;BME280;41384;51.418;7.286;2023-06-14T10:44:44;99960.13;;;23.43;36.96
55540;BME280;41384;51.418;7.286;2023-06-14T10:47:29;99963.84;;;23.47;38.11
55540;BME280;41384;51.418;7.286;2023-06-14T10:52:29;99954.53;;;23.58;37.44
55540;BME280;41384;51.418;7.286;2023-06-14T10:57:43;99954.97;;;23.66;38.29
55540;BME280;41384;51.418;7.286;2023-06-14T11:00:09;99952.19;;;23.71;37.22
55540;BME280;41384;51.418;7.286;2023-06-14T11:05:24;99949.44;;;23.76;37.68
55540;BME280;41384;51.418;7.286;2023-06-14T11:08:15;99950.00;;;23.73;37.28
55540;BME280;41384;51.418;7.286;2023-06-14T11:10:44;99945.50;;;23.87;37.35
55540;BME280;41384;51.418;7.286;2023-06-14T11:13:13;99953.56;;;23.87;37.40
55540;BME280;41384;51.418;7.286;2023-06-14T11:15:45;99951.38;;;23.89;38.21
55540;BME280;41384;51.418;7.286;2023-06-14T11:18:11;99945.63;;;23.96;37.50
55540;BME280;41384;51.418;7.286;2023-06-14T11:20:37;99959.84;;;24.02;36.98
55540;BME280;41384;51.418;7.286;2023-06-14T11:23:03;99953.00;;;24.10;37.18
55540;BME280;41384;51.418;7.286;2023-06-14T11:25:29;99948.41;;;24.10;37.84
55540;BME280;41384;51.418;7.286;2023-06-14T11:27:55;99955.91;;;24.13;37.11
55540;BME280;41384;51.418;7.286;2023-06-14T11:30:21;99945.25;;;24.22;36.65
55540;BME280;41384;51.418;7.286;2023-06-14T11:32:47;99961.44;;;24.22;36.48
55540;BME280;41384;51.418;7.286;2023-06-14T11:35:13;99960.03;;;24.25;35.98
55540;BME280;41384;51.418;7.286;2023-06-14T11:37:39;99954.56;;;24.30;36.68
55540;BME280;41384;51.418;7.286;2023-06-14T11:40:06;99952.91;;;24.34;36.72
55540;BME280;41384;51.418;7.286;2023-06-14T11:42:35;99948.28;;;24.34;37.35
55540;BME280;41384;51.418;7.286;2023-06-14T11:45:02;99954.59;;;24.44;37.00
55540;BME280;41384;51.418;7.286;2023-06-14T11:47:32;99953.81;;;24.43;36.31
55540;BME280;41384;51.418;7.286;2023-06-14T11:49:58;99957.97;;;24.36;35.52
55540;BME280;41384;51.418;7.286;2023-06-14T11:52:24;99949.53;;;24.42;36.29
55540;BME280;41384;51.418;7.286;2023-06-14T11:54:49;99936.13;;;24.51;36.52
55540;BME280;41384;51.418;7.286;2023-06-14T11:57:14;99947.16;;;24.55;36.06
55540;BME280;41384;51.418;7.286;2023-06-14T11:59:40;99948.53;;;24.52;36.78
55540;BME280;41384;51.418;7.286;2023-06-14T12:02:06;99944.13;;;24.56;36.07
55540;BME280;41384;51.418;7.286;2023-06-14T12:04:32;99938.16;;;24.59;36.48
55540;BME280;41384;51.418;7.286;2023-06-14T12:07:08;99947.84;;;24.60;37.13
55540;BME280;41384;51.418;7.286;2023-06-14T12:12:24;99953.66;;;24.68;36.27
55540;BME280;41384;51.418;7.286;2023-06-14T12:14:51;99943.59;;;24.73;36.21
55540;BME280;41384;51.418;7.286;2023-06-14T12:17:17;99943.31;;;24.75;35.91
55540;BME280;41384;51.418;7.286;2023-06-14T12:19:44;99947.31;;;24.77;36.28
55540;BME280;41384;51.418;7.286;2023-06-14T12:22:10;99940.94;;;24.87;36.15
55540;BME280;41384;51.418;7.286;2023-06-14T12:24:35;99935.53;;;24.87;36.23
55540;BME280;41384;51.418;7.286;2023-06-14T12:27:01;99941.31;;;24.81;36.29
55540;BME280;41384;51.418;7.286;2023-06-14T12:29:30;99935.81;;;24.86;36.30
55540;BME280;41384;51.418;7.286;2023-06-14T12:31:55;99932.72;;;24.92;35.65
55540;BME280;41384;51.418;7.286;2023-06-14T12:34:23;99936.72;;;24.95;36.41
55540;BME280;41384;51.418;7.286;2023-06-14T12:36:58;99942.22;;;24.90;36.16
55540;BME280;41384;51.418;7.286;2023-06-14T12:39:24;99947.13;;;25.02;37.07
55540;BME280;41384;51.418;7.286;2023-06-14T12:41:50;99944.91;;;25.04;35.81
55540;BME280;41384;51.418;7.286;2023-06-14T12:44:15;99943.22;;;24.94;35.08
55540;BME280;41384;51.418;7.286;2023-06-14T12:46:42;99944.03;;;24.95;35.24
55540;BME280;41384;51.418;7.286;2023-06-14T12:49:10;99943.09;;;24.99;35.48
55540;BME280;41384;51.418;7.286;2023-06-14T12:51:36;99935.31;;;25.12;34.95
55540;BME280;41384;51.418;7.286;2023-06-14T12:54:01;99944.41;;;25.16;35.08
55540;BME280;41384;51.418;7.286;2023-06-14T12:56:28;99934.91;;;25.18;34.74
55540;BME280;41384;51.418;7.286;2023-06-14T12:58:53;99939.69;;;25.21;35.25
55540;BME280;41384;51.418;7.286;2023-06-14T13:01:19;99951.28;;;25.36;34.39
55540;BME280;41384;51.418;7.286;2023-06-14T13:03:46;99948.50;;;25.27;35.54
55540;BME280;41384;51.418;7.286;2023-06-14T13:06:11;99944.38;;;25.44;33.59
55540;BME280;41384;51.418;7.286;2023-06-14T13:08:37;99950.19;;;25.37;34.75
55540;BME280;41384;51.418;7.286;2023-06-14T13:11:02;99947.19;;;25.11;35.34
55540;BME280;41384;51.418;7.286;2023-06-14T13:13:27;99944.00;;;25.23;34.54